Boardman, Oregon
Current Conditions -  °F | °C
As of 8:53 AM on Friday 28 Nov 2014 (Local Time) from KHRI Reporting Station
Broken Clouds Broken Clouds  
Wind Chill: 53°   Ceiling: 6500
Heat Index: 53°   Visibility: 10mi
Dew Point: 47°   Wind: 5mph
Humidity: 80%   Direction: 130°SE
Pressure: 29.6"   Gusts: NA
Location:  45.84°N, 119.7°W
Report Text: KHRI 281653Z AUTO 13004KT 10SM BKN065 12/08 A2960 RMK AO2 SLP020 T01170083
Loading
Personal Weather Stations






























Interactive Weather Map New forecast layout! Learn more

10-Day Weather Forecast

Advertisements
Track Severe Weather on mobile